sensor_id;sensor_type;location;lat;lon;timestamp;P1;durP1;ratioP1;P2;durP2;ratioP2
2710;SDS011;20721;47.402;8.550;2022-11-23T00:00:34;1.28;;;1.28;;
2710;SDS011;20721;47.402;8.550;2022-11-23T00:01:34;1.41;;;1.41;;
2710;SDS011;20721;47.402;8.550;2022-11-23T00:02:34;1.28;;;1.28;;
2710;SDS011;20721;47.402;8.550;2022-11-23T00:03:34;1.28;;;1.28;;
2710;SDS011;20721;47.402;8.550;2022-11-23T00:04:34;1.58;;;1.58;;
2710;SDS011;20721;47.402;8.550;2022-11-23T00:05:34;1.36;;;1.36;;
2710;SDS011;20721;47.402;8.550;2022-11-23T00:06:34;1.45;;;1.45;;
2710;SDS011;20721;47.402;8.550;2022-11-23T00:07:34;1.51;;;1.51;;
2710;SDS011;20721;47.402;8.550;2022-11-23T00:08:34;1.61;;;1.61;;
2710;SDS011;20721;47.402;8.550;2022-11-23T00:09:34;1.61;;;1.61;;
2710;SDS011;20721;47.402;8.550;2022-11-23T00:10:34;2.21;;;2.21;;
2710;SDS011;20721;47.402;8.550;2022-11-23T00:11:34;1.64;;;1.62;;
2710;SDS011;20721;47.402;8.550;2022-11-23T00:12:34;1.50;;;1.46;;
2710;SDS011;20721;47.402;8.550;2022-11-23T00:13:34;1.46;;;1.46;;
2710;SDS011;20721;47.402;8.550;2022-11-23T00:14:34;1.55;;;1.55;;
2710;SDS011;20721;47.402;8.550;2022-11-23T00:15:34;1.33;;;1.33;;
2710;SDS011;20721;47.402;8.550;2022-11-23T00:16:35;1.33;;;1.33;;
2710;SDS011;20721;47.402;8.550;2022-11-23T00:17:34;1.54;;;1.54;;
2710;SDS011;20721;47.402;8.550;2022-11-23T00:18:34;1.60;;;1.60;;
2710;SDS011;20721;47.402;8.550;2022-11-23T00:19:34;1.70;;;1.70;;
2710;SDS011;20721;47.402;8.550;2022-11-23T00:20:34;1.07;;;1.07;;
2710;SDS011;20721;47.402;8.550;2022-11-23T00:21:36;1.42;;;1.42;;
2710;SDS011;20721;47.402;8.550;2022-11-23T00:22:34;1.09;;;1.09;;
2710;SDS011;20721;47.402;8.550;2022-11-23T00:23:34;1.44;;;1.44;;
2710;SDS011;20721;47.402;8.550;2022-11-23T00:24:34;1.56;;;1.56;;
2710;SDS011;20721;47.402;8.550;2022-11-23T00:25:34;1.66;;;1.66;;
2710;SDS011;20721;47.402;8.550;2022-11-23T00:26:34;1.24;;;1.24;;
2710;SDS011;20721;47.402;8.550;2022-11-23T00:29:34;1.37;;;1.37;;
2710;SDS011;20721;47.402;8.550;2022-11-23T00:30:34;1.32;;;1.32;;
2710;SDS011;20721;47.402;8.550;2022-11-23T00:31:34;1.67;;;1.67;;
2710;SDS011;20721;47.402;8.550;2022-11-23T00:33:34;1.14;;;1.14;;
2710;SDS011;20721;47.402;8.550;2022-11-23T00:34:34;1.43;;;1.40;;
2710;SDS011;20721;47.402;8.550;2022-11-23T00:35:34;1.59;;;1.59;;
2710;SDS011;20721;47.402;8.550;2022-11-23T00:36:35;1.41;;;1.41;;
2710;SDS011;20721;47.402;8.550;2022-11-23T00:37:34;1.28;;;1.28;;
2710;SDS011;20721;47.402;8.550;2022-11-23T00:38:34;1.61;;;1.61;;
2710;SDS011;20721;47.402;8.550;2022-11-23T00:39:34;1.44;;;1.43;;
2710;SDS011;20721;47.402;8.550;2022-11-23T00:40:34;1.49;;;1.46;;
2710;SDS011;20721;47.402;8.550;2022-11-23T00:41:35;1.26;;;1.24;;
2710;SDS011;20721;47.402;8.550;2022-11-23T00:42:34;1.46;;;1.44;;
2710;SDS011;20721;47.402;8.550;2022-11-23T00:43:34;1.57;;;1.57;;
2710;SDS011;20721;47.402;8.550;2022-11-23T00:44:34;1.53;;;1.53;;
2710;SDS011;20721;47.402;8.550;2022-11-23T00:46:35;1.55;;;1.54;;
2710;SDS011;20721;47.402;8.550;2022-11-23T00:48:34;1.27;;;1.24;;
2710;SDS011;20721;47.402;8.550;2022-11-23T00:49:34;1.78;;;1.74;;
2710;SDS011;20721;47.402;8.550;2022-11-23T00:50:34;1.77;;;1.76;;
2710;SDS011;20721;47.402;8.550;2022-11-23T00:51:35;1.76;;;1.71;;
2710;SDS011;20721;47.402;8.550;2022-11-23T00:52:34;1.46;;;1.42;;
2710;SDS011;20721;47.402;8.550;2022-11-23T00:54:34;1.63;;;1.60;;
2710;SDS011;20721;47.402;8.550;2022-11-23T00:55:34;1.86;;;1.86;;
2710;SDS011;20721;47.402;8.550;2022-11-23T00:57:34;1.48;;;1.48;;
2710;SDS011;20721;47.402;8.550;2022-11-23T00:58:34;1.35;;;1.35;;
2710;SDS011;20721;47.402;8.550;2022-11-23T00:59:34;1.97;;;1.97;;
2710;SDS011;20721;47.402;8.550;2022-11-23T01:01:35;1.52;;;1.52;;
2710;SDS011;20721;47.402;8.550;2022-11-23T01:02:34;1.26;;;1.26;;
2710;SDS011;20721;47.402;8.550;2022-11-23T01:03:35;1.57;;;1.57;;
2710;SDS011;20721;47.402;8.550;2022-11-23T01:04:34;1.52;;;1.52;;
2710;SDS011;20721;47.402;8.550;2022-11-23T01:05:35;1.47;;;1.47;;
2710;SDS011;20721;47.402;8.550;2022-11-23T01:06:37;1.48;;;1.48;;
2710;SDS011;20721;47.402;8.550;2022-11-23T01:08:34;1.53;;;1.53;;
2710;SDS011;20721;47.402;8.550;2022-11-23T01:09:35;1.62;;;1.62;;
2710;SDS011;20721;47.402;8.550;2022-11-23T01:10:34;1.48;;;1.48;;
2710;SDS011;20721;47.402;8.550;2022-11-23T01:11:35;1.66;;;1.66;;
2710;SDS011;20721;47.402;8.550;2022-11-23T01:12:34;1.43;;;1.43;;
2710;SDS011;20721;47.402;8.550;2022-11-23T01:13:34;1.23;;;1.23;;
2710;SDS011;20721;47.402;8.550;2022-11-23T01:14:34;1.01;;;1.01;;
2710;SDS011;20721;47.402;8.550;2022-11-23T01:15:34;1.37;;;1.37;;
2710;SDS011;20721;47.402;8.550;2022-11-23T01:16:37;1.62;;;1.62;;
2710;SDS011;20721;47.402;8.550;2022-11-23T01:17:34;1.56;;;1.56;;
2710;SDS011;20721;47.402;8.550;2022-11-23T01:18:34;1.49;;;1.49;;
2710;SDS011;20721;47.402;8.550;2022-11-23T01:19:34;1.59;;;1.59;;
2710;SDS011;20721;47.402;8.550;2022-11-23T01:20:34;1.41;;;1.40;;
2710;SDS011;20721;47.402;8.550;2022-11-23T01:22:34;1.30;;;1.30;;
2710;SDS011;20721;47.402;8.550;2022-11-23T01:23:34;1.16;;;1.16;;
2710;SDS011;20721;47.402;8.550;2022-11-23T01:24:34;1.48;;;1.48;;
2710;SDS011;20721;47.402;8.550;2022-11-23T01:25:35;1.23;;;1.23;;
2710;SDS011;20721;47.402;8.550;2022-11-23T01:27:34;1.48;;;1.48;;
2710;SDS011;20721;47.402;8.550;2022-11-23T01:28:34;1.30;;;1.30;;
2710;SDS011;20721;47.402;8.550;2022-11-23T01:29:34;1.34;;;1.34;;
2710;SDS011;20721;47.402;8.550;2022-11-23T01:30:34;1.42;;;1.42;;
2710;SDS011;20721;47.402;8.550;2022-11-23T01:31:34;1.70;;;1.70;;
2710;SDS011;20721;47.402;8.550;2022-11-23T01:32:34;1.70;;;1.70;;
2710;SDS011;20721;47.402;8.550;2022-11-23T01:33:34;1.23;;;1.23;;
2710;SDS011;20721;47.402;8.550;2022-11-23T01:34:34;1.33;;;1.33;;
2710;SDS011;20721;47.402;8.550;2022-11-23T01:36:35;1.62;;;1.60;;
2710;SDS011;20721;47.402;8.550;2022-11-23T01:37:34;1.32;;;1.29;;
2710;SDS011;20721;47.402;8.550;2022-11-23T01:38:34;1.68;;;1.64;;
2710;SDS011;20721;47.402;8.550;2022-11-23T01:39:34;1.43;;;1.40;;
2710;SDS011;20721;47.402;8.550;2022-11-23T01:40:41;1.80;;;1.77;;
2710;SDS011;20721;47.402;8.550;2022-11-23T01:41:38;1.58;;;1.53;;
2710;SDS011;20721;47.402;8.550;2022-11-23T01:43:34;1.39;;;1.35;;
2710;SDS011;20721;47.402;8.550;2022-11-23T01:44:40;1.84;;;1.81;;
2710;SDS011;20721;47.402;8.550;2022-11-23T01:45:36;1.84;;;1.81;;
2710;SDS011;20721;47.402;8.550;2022-11-23T01:46:34;1.37;;;1.36;;
2710;SDS011;20721;47.402;8.550;2022-11-23T01:47:34;1.47;;;1.47;;
2710;SDS011;20721;47.402;8.550;2022-11-23T01:48:39;1.43;;;1.43;;
2710;SDS011;20721;47.402;8.550;2022-11-23T01:50:34;1.71;;;1.69;;
2710;SDS011;20721;47.402;8.550;2022-11-23T01:51:38;1.37;;;1.36;;
2710;SDS011;20721;47.402;8.550;2022-11-23T01:52:35;1.26;;;1.25;;
2710;SDS011;20721;47.402;8.550;2022-11-23T01:53:35;1.42;;;1.41;;
2710;SDS011;20721;47.402;8.550;2022-11-23T01:54:42;1.49;;;1.48;;
2710;SDS011;20721;47.402;8.550;2022-11-23T01:55:35;1.49;;;1.48;;
2710;SDS011;20721;47.402;8.550;2022-11-23T01:56:39;1.22;;;1.21;;
2710;SDS011;20721;47.402;8.550;2022-11-23T01:57:39;1.25;;;1.24;;
2710;SDS011;20721;47.402;8.550;2022-11-23T01:58:37;1.25;;;1.24;;
2710;SDS011;20721;47.402;8.550;2022-11-23T02:00:34;1.64;;;1.64;;
2710;SDS011;20721;47.402;8.550;2022-11-23T02:01:34;1.69;;;1.69;;
2710;SDS011;20721;47.402;8.550;2022-11-23T02:03:35;1.25;;;1.25;;
2710;SDS011;20721;47.402;8.550;2022-11-23T02:06:34;1.46;;;1.46;;
2710;SDS011;20721;47.402;8.550;2022-11-23T02:07:35;1.11;;;1.11;;
2710;SDS011;20721;47.402;8.550;2022-11-23T02:08:34;1.24;;;1.24;;
2710;SDS011;20721;47.402;8.550;2022-11-23T02:10:34;1.26;;;1.26;;
2710;SDS011;20721;47.402;8.550;2022-11-23T02:11:34;1.08;;;1.08;;
2710;SDS011;20721;47.402;8.550;2022-11-23T02:12:34;1.46;;;1.46;;
2710;SDS011;20721;47.402;8.550;2022-11-23T02:13:36;1.43;;;1.43;;
2710;SDS011;20721;47.402;8.550;2022-11-23T02:14:34;1.29;;;1.29;;
2710;SDS011;20721;47.402;8.550;2022-11-23T02:16:34;1.59;;;1.59;;
2710;SDS011;20721;47.402;8.550;2022-11-23T02:17:34;1.23;;;1.23;;
2710;SDS011;20721;47.402;8.550;2022-11-23T02:20:34;1.10;;;1.10;;
2710;SDS011;20721;47.402;8.550;2022-11-23T02:21:34;1.41;;;1.41;;
2710;SDS011;20721;47.402;8.550;2022-11-23T02:24:38;1.15;;;1.15;;
2710;SDS011;20721;47.402;8.550;2022-11-23T02:26:38;1.41;;;1.38;;
2710;SDS011;20721;47.402;8.550;2022-11-23T02:27:35;1.41;;;1.38;;
2710;SDS011;20721;47.402;8.550;2022-11-23T02:28:39;1.32;;;1.30;;
2710;SDS011;20721;47.402;8.550;2022-11-23T02:29:35;1.31;;;1.31;;
2710;SDS011;20721;47.402;8.550;2022-11-23T02:30:34;1.14;;;1.13;;
2710;SDS011;20721;47.402;8.550;2022-11-23T02:31:34;1.13;;;1.10;;
2710;SDS011;20721;47.402;8.550;2022-11-23T02:32:34;1.32;;;1.29;;
2710;SDS011;20721;47.402;8.550;2022-11-23T02:33:38;1.22;;;1.19;;
2710;SDS011;20721;47.402;8.550;2022-11-23T02:35:34;1.56;;;1.52;;
2710;SDS011;20721;47.402;8.550;2022-11-23T02:37:34;1.28;;;1.23;;
2710;SDS011;20721;47.402;8.550;2022-11-23T02:38:37;1.36;;;1.32;;
2710;SDS011;20721;47.402;8.550;2022-11-23T02:39:44;1.67;;;1.63;;
2710;SDS011;20721;47.402;8.550;2022-11-23T02:41:35;1.36;;;1.33;;
2710;SDS011;20721;47.402;8.550;2022-11-23T02:42:36;1.60;;;1.57;;
2710;SDS011;20721;47.402;8.550;2022-11-23T02:43:34;1.36;;;1.33;;
2710;SDS011;20721;47.402;8.550;2022-11-23T02:45:46;1.42;;;1.39;;
2710;SDS011;20721;47.402;8.550;2022-11-23T02:46:34;1.42;;;1.39;;
2710;SDS011;20721;47.402;8.550;2022-11-23T02:47:34;1.28;;;1.25;;
2710;SDS011;20721;47.402;8.550;2022-11-23T02:48:34;1.43;;;1.41;;
2710;SDS011;20721;47.402;8.550;2022-11-23T02:49:34;1.25;;;1.23;;
2710;SDS011;20721;47.402;8.550;2022-11-23T02:50:34;1.63;;;1.59;;
2710;SDS011;20721;47.402;8.550;2022-11-23T02:51:34;1.28;;;1.25;;
2710;SDS011;20721;47.402;8.550;2022-11-23T02:52:34;1.47;;;1.44;;
2710;SDS011;20721;47.402;8.550;2022-11-23T02:53:34;1.51;;;1.51;;
2710;SDS011;20721;47.402;8.550;2022-11-23T02:54:34;1.48;;;1.45;;
2710;SDS011;20721;47.402;8.550;2022-11-23T02:55:34;1.72;;;1.68;;
2710;SDS011;20721;47.402;8.550;2022-11-23T02:56:34;1.75;;;1.72;;
2710;SDS011;20721;47.402;8.550;2022-11-23T02:57:34;1.59;;;1.59;;
2710;SDS011;20721;47.402;8.550;2022-11-23T02:58:34;2.04;;;2.00;;
2710;SDS011;20721;47.402;8.550;2022-11-23T02:59:34;1.05;;;1.05;;
2710;SDS011;20721;47.402;8.550;2022-11-23T03:00:34;1.74;;;1.72;;
2710;SDS011;20721;47.402;8.550;2022-11-23T03:02:34;1.16;;;1.13;;
2710;SDS011;20721;47.402;8.550;2022-11-23T03:03:34;1.79;;;1.75;;
2710;SDS011;20721;47.402;8.550;2022-11-23T03:04:38;1.18;;;1.16;;
2710;SDS011;20721;47.402;8.550;2022-11-23T03:05:34;1.18;;;1.16;;
2710;SDS011;20721;47.402;8.550;2022-11-23T03:06:34;1.68;;;1.66;;
2710;SDS011;20721;47.402;8.550;2022-11-23T03:07:34;1.22;;;1.21;;
2710;SDS011;20721;47.402;8.550;2022-11-23T03:08:34;1.64;;;1.62;;
2710;SDS011;20721;47.402;8.550;2022-11-23T03:09:35;1.03;;;1.01;;
2710;SDS011;20721;47.402;8.550;2022-11-23T03:10:34;1.42;;;1.42;;
2710;SDS011;20721;47.402;8.550;2022-11-23T03:11:34;1.60;;;1.60;;
2710;SDS011;20721;47.402;8.550;2022-11-23T03:12:34;1.35;;;1.35;;
2710;SDS011;20721;47.402;8.550;2022-11-23T03:13:35;1.45;;;1.45;;
2710;SDS011;20721;47.402;8.550;2022-11-23T03:14:34;1.17;;;1.17;;
2710;SDS011;20721;47.402;8.550;2022-11-23T03:16:34;1.03;;;1.03;;
2710;SDS011;20721;47.402;8.550;2022-11-23T03:17:35;1.48;;;1.48;;
2710;SDS011;20721;47.402;8.550;2022-11-23T03:18:34;1.42;;;1.42;;
2710;SDS011;20721;47.402;8.550;2022-11-23T03:19:34;1.12;;;1.12;;
2710;SDS011;20721;47.402;8.550;2022-11-23T03:20:34;1.20;;;1.20;;
2710;SDS011;20721;47.402;8.550;2022-11-23T03:21:35;1.58;;;1.58;;
2710;SDS011;20721;47.402;8.550;2022-11-23T03:22:34;1.56;;;1.56;;
2710;SDS011;20721;47.402;8.550;2022-11-23T03:23:34;1.70;;;1.70;;
2710;SDS011;20721;47.402;8.550;2022-11-23T03:25:34;1.53;;;1.53;;
2710;SDS011;20721;47.402;8.550;2022-11-23T03:27:34;1.70;;;1.70;;
2710;SDS011;20721;47.402;8.550;2022-11-23T03:28:34;1.81;;;1.81;;
2710;SDS011;20721;47.402;8.550;2022-11-23T03:29:35;1.29;;;1.29;;
2710;SDS011;20721;47.402;8.550;2022-11-23T03:31:34;1.63;;;1.63;;
2710;SDS011;20721;47.402;8.550;2022-11-23T03:32:34;1.43;;;1.43;;
2710;SDS011;20721;47.402;8.550;2022-11-23T03:33:34;1.53;;;1.53;;
2710;SDS011;20721;47.402;8.550;2022-11-23T03:35:34;1.89;;;1.89;;
2710;SDS011;20721;47.402;8.550;2022-11-23T03:36:34;1.31;;;1.31;;
2710;SDS011;20721;47.402;8.550;2022-11-23T03:37:34;1.51;;;1.51;;
2710;SDS011;20721;47.402;8.550;2022-11-23T03:38:34;1.39;;;1.39;;
2710;SDS011;20721;47.402;8.550;2022-11-23T03:39:34;1.50;;;1.50;;
2710;SDS011;20721;47.402;8.550;2022-11-23T03:40:34;1.73;;;1.73;;
2710;SDS011;20721;47.402;8.550;2022-11-23T03:41:34;1.64;;;1.64;;
2710;SDS011;20721;47.402;8.550;2022-11-23T03:42:34;1.90;;;1.90;;
2710;SDS011;20721;47.402;8.550;2022-11-23T03:43:34;1.58;;;1.58;;
2710;SDS011;20721;47.402;8.550;2022-11-23T03:44:34;1.62;;;1.62;;
2710;SDS011;20721;47.402;8.550;2022-11-23T03:47:35;1.60;;;1.59;;
2710;SDS011;20721;47.402;8.550;2022-11-23T03:49:34;1.66;;;1.66;;
2710;SDS011;20721;47.402;8.550;2022-11-23T03:50:34;2.10;;;2.09;;
2710;SDS011;20721;47.402;8.550;2022-11-23T03:51:34;1.71;;;1.70;;
2710;SDS011;20721;47.402;8.550;2022-11-23T03:52:34;1.93;;;1.92;;
2710;SDS011;20721;47.402;8.550;2022-11-23T03:53:34;1.79;;;1.79;;
2710;SDS011;20721;47.402;8.550;2022-11-23T03:54:34;2.18;;;2.17;;
2710;SDS011;20721;47.402;8.550;2022-11-23T03:55:34;1.85;;;1.84;;
2710;SDS011;20721;47.402;8.550;2022-11-23T03:57:34;1.55;;;1.54;;
2710;SDS011;20721;47.402;8.550;2022-11-23T03:58:34;1.72;;;1.70;;
2710;SDS011;20721;47.402;8.550;2022-11-23T03:59:34;1.69;;;1.66;;
2710;SDS011;20721;47.402;8.550;2022-11-23T04:02:34;1.93;;;1.90;;
2710;SDS011;20721;47.402;8.550;2022-11-23T04:03:34;2.12;;;2.10;;
2710;SDS011;20721;47.402;8.550;2022-11-23T04:04:34;1.62;;;1.62;;
2710;SDS011;20721;47.402;8.550;2022-11-23T04:06:34;1.96;;;1.96;;
2710;SDS011;20721;47.402;8.550;2022-11-23T04:07:34;1.84;;;1.84;;
2710;SDS011;20721;47.402;8.550;2022-11-23T04:08:34;1.43;;;1.43;;
2710;SDS011;20721;47.402;8.550;2022-11-23T04:09:35;2.13;;;2.13;;
2710;SDS011;20721;47.402;8.550;2022-11-23T04:10:35;1.72;;;1.71;;
2710;SDS011;20721;47.402;8.550;2022-11-23T04:11:34;1.82;;;1.82;;
2710;SDS011;20721;47.402;8.550;2022-11-23T04:12:35;1.69;;;1.69;;
2710;SDS011;20721;47.402;8.550;2022-11-23T04:13:34;1.64;;;1.64;;
2710;SDS011;20721;47.402;8.550;2022-11-23T04:14:34;2.13;;;2.13;;
2710;SDS011;20721;47.402;8.550;2022-11-23T04:15:34;1.65;;;1.65;;
2710;SDS011;20721;47.402;8.550;2022-11-23T04:16:34;1.92;;;1.92;;
2710;SDS011;20721;47.402;8.550;2022-11-23T04:17:34;2.04;;;2.04;;
2710;SDS011;20721;47.402;8.550;2022-11-23T04:18:34;1.84;;;1.84;;
2710;SDS011;20721;47.402;8.550;2022-11-23T04:20:34;2.29;;;2.29;;
2710;SDS011;20721;47.402;8.550;2022-11-23T04:21:34;2.05;;;2.05;;
2710;SDS011;20721;47.402;8.550;2022-11-23T04:22:34;1.90;;;1.90;;
2710;SDS011;20721;47.402;8.550;2022-11-23T04:23:34;2.10;;;2.10;;
2710;SDS011;20721;47.402;8.550;2022-11-23T04:24:34;1.82;;;1.82;;
2710;SDS011;20721;47.402;8.550;2022-11-23T04:25:34;1.61;;;1.61;;
2710;SDS011;20721;47.402;8.550;2022-11-23T04:26:34;2.41;;;2.41;;
2710;SDS011;20721;47.402;8.550;2022-11-23T04:27:34;1.71;;;1.71;;
2710;SDS011;20721;47.402;8.550;2022-11-23T04:29:34;2.00;;;2.00;;
2710;SDS011;20721;47.402;8.550;2022-11-23T04:30:34;2.13;;;2.13;;
2710;SDS011;20721;47.402;8.550;2022-11-23T04:31:34;1.67;;;1.67;;
2710;SDS011;20721;47.402;8.550;2022-11-23T04:32:34;2.33;;;2.33;;
2710;SDS011;20721;47.402;8.550;2022-11-23T04:33:34;2.03;;;2.03;;
2710;SDS011;20721;47.402;8.550;2022-11-23T04:34:34;2.35;;;2.35;;
2710;SDS011;20721;47.402;8.550;2022-11-23T04:35:35;2.54;;;2.54;;
2710;SDS011;20721;47.402;8.550;2022-11-23T04:36:34;2.28;;;2.28;;
2710;SDS011;20721;47.402;8.550;2022-11-23T04:37:34;2.00;;;2.00;;
2710;SDS011;20721;47.402;8.550;2022-11-23T04:38:35;1.96;;;1.96;;
2710;SDS011;20721;47.402;8.550;2022-11-23T04:39:34;1.58;;;1.58;;
2710;SDS011;20721;47.402;8.550;2022-11-23T04:42:34;2.15;;;2.13;;
2710;SDS011;20721;47.402;8.550;2022-11-23T04:43:34;1.95;;;1.94;;
2710;SDS011;20721;47.402;8.550;2022-11-23T04:44:34;1.61;;;1.61;;
2710;SDS011;20721;47.402;8.550;2022-11-23T04:46:34;1.41;;;1.41;;
2710;SDS011;20721;47.402;8.550;2022-11-23T04:48:34;1.65;;;1.65;;
2710;SDS011;20721;47.402;8.550;2022-11-23T04:49:34;1.45;;;1.44;;
2710;SDS011;20721;47.402;8.550;2022-11-23T04:50:34;2.13;;;2.13;;
2710;SDS011;20721;47.402;8.550;2022-11-23T04:51:34;1.94;;;1.94;;
2710;SDS011;20721;47.402;8.550;2022-11-23T04:53:34;2.00;;;2.00;;
2710;SDS011;20721;47.402;8.550;2022-11-23T04:54:34;1.71;;;1.71;;
2710;SDS011;20721;47.402;8.550;2022-11-23T04:56:34;1.56;;;1.56;;
2710;SDS011;20721;47.402;8.550;2022-11-23T04:59:34;1.75;;;1.72;;
2710;SDS011;20721;47.402;8.550;2022-11-23T05:00:34;2.36;;;2.32;;
2710;SDS011;20721;47.402;8.550;2022-11-23T05:01:34;1.69;;;1.65;;
2710;SDS011;20721;47.402;8.550;2022-11-23T05:02:34;2.43;;;2.40;;
2710;SDS011;20721;47.402;8.550;2022-11-23T05:03:34;1.83;;;1.83;;
2710;SDS011;20721;47.402;8.550;2022-11-23T05:04:34;2.01;;;2.01;;
2710;SDS011;20721;47.402;8.550;2022-11-23T05:05:36;2.32;;;2.31;;
2710;SDS011;20721;47.402;8.550;2022-11-23T05:06:34;1.89;;;1.89;;
2710;SDS011;20721;47.402;8.550;2022-11-23T05:07:34;2.07;;;2.05;;
2710;SDS011;20721;47.402;8.550;2022-11-23T05:08:35;2.01;;;2.01;;
2710;SDS011;20721;47.402;8.550;2022-11-23T05:09:34;2.29;;;2.29;;
2710;SDS011;20721;47.402;8.550;2022-11-23T05:10:35;1.97;;;1.97;;
2710;SDS011;20721;47.402;8.550;2022-11-23T05:11:36;1.74;;;1.74;;
2710;SDS011;20721;47.402;8.550;2022-11-23T05:12:34;1.84;;;1.84;;
2710;SDS011;20721;47.402;8.550;2022-11-23T05:13:34;1.97;;;1.97;;
2710;SDS011;20721;47.402;8.550;2022-11-23T05:14:34;2.13;;;2.13;;
2710;SDS011;20721;47.402;8.550;2022-11-23T05:15:34;2.80;;;2.80;;
2710;SDS011;20721;47.402;8.550;2022-11-23T05:16:34;2.49;;;2.49;;
2710;SDS011;20721;47.402;8.550;2022-11-23T05:17:34;2.52;;;2.52;;
2710;SDS011;20721;47.402;8.550;2022-11-23T05:18:34;2.72;;;2.72;;
2710;SDS011;20721;47.402;8.550;2022-11-23T05:19:34;2.64;;;2.64;;
2710;SDS011;20721;47.402;8.550;2022-11-23T05:20:34;2.61;;;2.61;;
2710;SDS011;20721;47.402;8.550;2022-11-23T05:21:34;2.33;;;2.33;;
2710;SDS011;20721;47.402;8.550;2022-11-23T05:22:34;2.00;;;2.00;;
2710;SDS011;20721;47.402;8.550;2022-11-23T05:23:34;2.29;;;2.29;;
2710;SDS011;20721;47.402;8.550;2022-11-23T05:24:34;2.48;;;2.48;;
2710;SDS011;20721;47.402;8.550;2022-11-23T05:26:34;3.14;;;3.14;;
2710;SDS011;20721;47.402;8.550;2022-11-23T05:27:34;2.79;;;2.79;;
2710;SDS011;20721;47.402;8.550;2022-11-23T05:28:44;2.26;;;2.26;;
2710;SDS011;20721;47.402;8.550;2022-11-23T05:29:35;2.26;;;2.26;;
2710;SDS011;20721;47.402;8.550;2022-11-23T05:30:35;2.22;;;2.22;;
2710;SDS011;20721;47.402;8.550;2022-11-23T05:31:34;2.69;;;2.69;;
2710;SDS011;20721;47.402;8.550;2022-11-23T05:34:34;2.07;;;2.07;;
2710;SDS011;20721;47.402;8.550;2022-11-23T05:35:35;2.73;;;2.73;;
2710;SDS011;20721;47.402;8.550;2022-11-23T05:36:34;2.48;;;2.48;;
2710;SDS011;20721;47.402;8.550;2022-11-23T05:37:34;2.51;;;2.51;;
2710;SDS011;20721;47.402;8.550;2022-11-23T05:38:34;1.91;;;1.91;;
2710;SDS011;20721;47.402;8.550;2022-11-23T05:41:34;2.59;;;2.59;;
2710;SDS011;20721;47.402;8.550;2022-11-23T05:42:34;2.61;;;2.61;;
2710;SDS011;20721;47.402;8.550;2022-11-23T05:43:34;2.15;;;2.15;;
2710;SDS011;20721;47.402;8.550;2022-11-23T05:45:35;2.52;;;2.52;;
2710;SDS011;20721;47.402;8.550;2022-11-23T05:47:34;2.88;;;2.88;;
2710;SDS011;20721;47.402;8.550;2022-11-23T05:48:35;2.69;;;2.69;;
2710;SDS011;20721;47.402;8.550;2022-11-23T05:49:34;2.62;;;2.62;;
2710;SDS011;20721;47.402;8.550;2022-11-23T05:52:35;2.82;;;2.82;;
2710;SDS011;20721;47.402;8.550;2022-11-23T05:53:35;2.37;;;2.37;;
2710;SDS011;20721;47.402;8.550;2022-11-23T05:54:34;2.74;;;2.74;;
2710;SDS011;20721;47.402;8.550;2022-11-23T05:55:35;2.27;;;2.27;;
2710;SDS011;20721;47.402;8.550;2022-11-23T05:56:34;2.22;;;2.22;;
2710;SDS011;20721;47.402;8.550;2022-11-23T05:57:34;2.30;;;2.30;;
2710;SDS011;20721;47.402;8.550;2022-11-23T05:58:34;2.47;;;2.47;;
2710;SDS011;20721;47.402;8.550;2022-11-23T05:59:34;2.34;;;2.34;;
2710;SDS011;20721;47.402;8.550;2022-11-23T06:00:35;2.16;;;2.16;;
2710;SDS011;20721;47.402;8.550;2022-11-23T06:01:35;2.38;;;2.38;;
2710;SDS011;20721;47.402;8.550;2022-11-23T06:02:35;2.33;;;2.33;;
2710;SDS011;20721;47.402;8.550;2022-11-23T06:03:35;2.21;;;2.21;;
2710;SDS011;20721;47.402;8.550;2022-11-23T06:04:35;1.95;;;1.95;;
2710;SDS011;20721;47.402;8.550;2022-11-23T06:05:34;2.31;;;2.31;;
2710;SDS011;20721;47.402;8.550;2022-11-23T06:06:34;2.03;;;2.03;;
2710;SDS011;20721;47.402;8.550;2022-11-23T06:07:35;2.34;;;2.34;;
2710;SDS011;20721;47.402;8.550;2022-11-23T06:08:35;2.51;;;2.50;;
2710;SDS011;20721;47.402;8.550;2022-11-23T06:09:35;1.88;;;1.88;;
2710;SDS011;20721;47.402;8.550;2022-11-23T06:10:35;2.47;;;2.47;;
2710;SDS011;20721;47.402;8.550;2022-11-23T06:12:36;2.47;;;2.47;;
2710;SDS011;20721;47.402;8.550;2022-11-23T06:13:35;2.70;;;2.70;;
2710;SDS011;20721;47.402;8.550;2022-11-23T06:14:35;3.34;;;3.31;;
2710;SDS011;20721;47.402;8.550;2022-11-23T06:15:34;3.10;;;3.07;;
2710;SDS011;20721;47.402;8.550;2022-11-23T06:16:34;2.60;;;2.57;;
2710;SDS011;20721;47.402;8.550;2022-11-23T06:17:35;2.77;;;2.74;;
2710;SDS011;20721;47.402;8.550;2022-11-23T06:18:35;2.74;;;2.74;;
2710;SDS011;20721;47.402;8.550;2022-11-23T06:19:35;2.58;;;2.57;;
2710;SDS011;20721;47.402;8.550;2022-11-23T06:20:35;2.33;;;2.32;;
2710;SDS011;20721;47.402;8.550;2022-11-23T06:21:35;2.35;;;2.35;;
2710;SDS011;20721;47.402;8.550;2022-11-23T06:22:34;2.38;;;2.38;;
2710;SDS011;20721;47.402;8.550;2022-11-23T06:23:35;2.39;;;2.39;;
2710;SDS011;20721;47.402;8.550;2022-11-23T06:24:35;3.52;;;3.51;;
2710;SDS011;20721;47.402;8.550;2022-11-23T06:25:35;2.40;;;2.38;;
2710;SDS011;20721;47.402;8.550;2022-11-23T06:26:35;2.91;;;2.91;;
2710;SDS011;20721;47.402;8.550;2022-11-23T06:27:34;2.41;;;2.41;;
2710;SDS011;20721;47.402;8.550;2022-11-23T06:28:36;2.75;;;2.75;;
2710;SDS011;20721;47.402;8.550;2022-11-23T06:29:35;3.44;;;3.44;;
2710;SDS011;20721;47.402;8.550;2022-11-23T06:30:35;2.05;;;2.05;;
2710;SDS011;20721;47.402;8.550;2022-11-23T06:31:34;2.34;;;2.34;;
2710;SDS011;20721;47.402;8.550;2022-11-23T06:32:35;2.28;;;2.28;;
2710;SDS011;20721;47.402;8.550;2022-11-23T06:34:35;2.62;;;2.62;;
2710;SDS011;20721;47.402;8.550;2022-11-23T06:35:35;2.35;;;2.34;;
2710;SDS011;20721;47.402;8.550;2022-11-23T06:36:35;2.37;;;2.36;;
2710;SDS011;20721;47.402;8.550;2022-11-23T06:37:35;2.43;;;2.41;;
2710;SDS011;20721;47.402;8.550;2022-11-23T06:38:35;2.95;;;2.91;;
2710;SDS011;20721;47.402;8.550;2022-11-23T06:39:35;2.94;;;2.90;;
2710;SDS011;20721;47.402;8.550;2022-11-23T06:40:35;3.30;;;3.26;;
2710;SDS011;20721;47.402;8.550;2022-11-23T06:41:42;3.08;;;3.04;;
2710;SDS011;20721;47.402;8.550;2022-11-23T06:42:45;2.73;;;2.70;;
2710;SDS011;20721;47.402;8.550;2022-11-23T06:43:35;2.73;;;2.70;;
2710;SDS011;20721;47.402;8.550;2022-11-23T06:45:36;2.98;;;2.98;;
2710;SDS011;20721;47.402;8.550;2022-11-23T06:46:35;2.53;;;2.53;;
2710;SDS011;20721;47.402;8.550;2022-11-23T06:47:37;3.09;;;3.09;;
2710;SDS011;20721;47.402;8.550;2022-11-23T06:48:35;3.09;;;3.09;;
2710;SDS011;20721;47.402;8.550;2022-11-23T06:49:35;3.10;;;3.10;;
2710;SDS011;20721;47.402;8.550;2022-11-23T06:50:35;2.85;;;2.85;;
2710;SDS011;20721;47.402;8.550;2022-11-23T06:51:35;3.37;;;3.37;;
2710;SDS011;20721;47.402;8.550;2022-11-23T06:52:35;3.07;;;3.07;;
2710;SDS011;20721;47.402;8.550;2022-11-23T06:53:37;3.62;;;3.62;;
2710;SDS011;20721;47.402;8.550;2022-11-23T06:54:37;3.59;;;3.59;;
2710;SDS011;20721;47.402;8.550;2022-11-23T06:55:35;3.17;;;3.17;;
2710;SDS011;20721;47.402;8.550;2022-11-23T06:56:35;3.14;;;3.14;;
2710;SDS011;20721;47.402;8.550;2022-11-23T06:57:35;3.59;;;3.59;;
2710;SDS011;20721;47.402;8.550;2022-11-23T06:59:35;2.90;;;2.90;;
2710;SDS011;20721;47.402;8.550;2022-11-23T07:00:35;3.53;;;3.53;;
2710;SDS011;20721;47.402;8.550;2022-11-23T07:02:35;3.35;;;3.35;;
2710;SDS011;20721;47.402;8.550;2022-11-23T07:06:37;3.06;;;3.06;;
2710;SDS011;20721;47.402;8.550;2022-11-23T07:07:36;3.30;;;3.30;;
2710;SDS011;20721;47.402;8.550;2022-11-23T07:08:36;3.59;;;3.59;;
2710;SDS011;20721;47.402;8.550;2022-11-23T07:09:35;3.41;;;3.41;;
2710;SDS011;20721;47.402;8.550;2022-11-23T07:13:35;3.26;;;3.26;;
2710;SDS011;20721;47.402;8.550;2022-11-23T07:14:35;2.98;;;2.98;;
2710;SDS011;20721;47.402;8.550;2022-11-23T07:15:35;3.20;;;3.18;;
2710;SDS011;20721;47.402;8.550;2022-11-23T07:16:35;3.10;;;3.08;;
2710;SDS011;20721;47.402;8.550;2022-11-23T07:17:37;2.93;;;2.93;;
2710;SDS011;20721;47.402;8.550;2022-11-23T07:18:35;2.82;;;2.82;;